createdAt,value
2019-01-21T00:00:07.454Z,-0.80
2019-01-21T00:02:38.109Z,-0.80
2019-01-21T00:05:08.820Z,-0.80
2019-01-21T00:07:39.459Z,-0.90
2019-01-21T00:10:10.485Z,-0.90
2019-01-21T00:12:41.177Z,-0.90
2019-01-21T00:15:12.014Z,-0.90
2019-01-21T00:17:42.884Z,-0.90
2019-01-21T00:20:14.258Z,-1.00
2019-01-21T00:22:44.898Z,-1.00
2019-01-21T00:25:15.623Z,-0.90
2019-01-21T00:27:46.228Z,-1.10
2019-01-21T00:30:17.601Z,-1.20
2019-01-21T00:32:48.739Z,-1.20
2019-01-21T00:35:19.429Z,-1.30
2019-01-21T00:37:51.264Z,-1.20
2019-01-21T00:40:22.008Z,-1.10
2019-01-21T00:42:53.779Z,-1.20
2019-01-21T00:45:24.768Z,-1.10
2019-01-21T00:47:55.578Z,-1.10
2019-01-21T00:50:26.249Z,-1.10
2019-01-21T00:52:56.973Z,-1.10
2019-01-21T00:55:27.624Z,-1.10
2019-01-21T00:57:58.274Z,-1.10
2019-01-21T01:00:29.223Z,-1.10
2019-01-21T01:02:59.929Z,-1.20
2019-01-21T01:05:30.604Z,-1.30
2019-01-21T01:08:01.608Z,-1.30
2019-01-21T01:10:32.298Z,-1.20
2019-01-21T01:13:02.963Z,-1.10
2019-01-21T01:15:33.543Z,-1.10
2019-01-21T01:18:04.254Z,-1.10
2019-01-21T01:20:34.984Z,-1.20
2019-01-21T01:23:05.599Z,-1.20
2019-01-21T01:25:36.598Z,-1.20
2019-01-21T01:28:07.209Z,-1.20
2019-01-21T01:30:38.008Z,-1.20
2019-01-21T01:33:08.744Z,-1.30
2019-01-21T01:35:39.484Z,-1.30
2019-01-21T01:38:10.124Z,-1.30
2019-01-21T01:40:41.006Z,-1.30
2019-01-21T01:43:11.573Z,-1.30
2019-01-21T01:45:42.184Z,-1.20
2019-01-21T01:48:13.114Z,-1.20
2019-01-21T01:50:44.191Z,-1.30
2019-01-21T01:53:16.243Z,-1.60
2019-01-21T01:55:47.364Z,-1.70
2019-01-21T01:58:18.183Z,-1.90
2019-01-21T02:00:48.904Z,-2.00
2019-01-21T02:03:19.894Z,-2.00
2019-01-21T02:05:50.483Z,-2.00
2019-01-21T02:08:21.343Z,-2.00
2019-01-21T02:10:52.093Z,-1.90
2019-01-21T02:13:22.899Z,-1.80
2019-01-21T02:15:54.039Z,-1.80
2019-01-21T02:18:24.739Z,-1.70
2019-01-21T02:20:58.959Z,-1.70
2019-01-21T02:23:34.274Z,-1.70
2019-01-21T02:26:08.804Z,-1.70
2019-01-21T02:29:00.449Z,-2.00
2019-01-21T02:32:20.540Z,-2.20
2019-01-21T02:35:16.085Z,-2.00
2019-01-21T02:38:35.954Z,-2.10
2019-01-21T02:41:18.410Z,-2.00
2019-01-21T02:44:42.389Z,-2.00
2019-01-21T02:47:43.130Z,-1.90
2019-01-21T02:50:53.934Z,-2.00
2019-01-21T02:54:19.699Z,-2.10
2019-01-21T02:57:49.108Z,-2.20
2019-01-21T03:01:00.695Z,-2.20
2019-01-21T03:04:05.149Z,-2.10
2019-01-21T03:07:21.199Z,-2.10
2019-01-21T03:10:09.139Z,-2.00
2019-01-21T03:13:32.685Z,-1.90
2019-01-21T03:16:33.994Z,-1.90
2019-01-21T03:19:51.239Z,-2.00
2019-01-21T03:23:08.539Z,-2.00
2019-01-21T03:26:03.193Z,-2.00
2019-01-21T03:29:04.084Z,-2.20
2019-01-21T03:32:15.536Z,-2.10
2019-01-21T03:35:38.048Z,-2.10
2019-01-21T03:38:42.997Z,-2.10
2019-01-21T03:41:59.960Z,-2.10
2019-01-21T03:45:12.946Z,-2.10
2019-01-21T03:48:16.259Z,-2.40
2019-01-21T03:51:23.754Z,-2.30
2019-01-21T03:54:11.251Z,-2.40
2019-01-21T03:57:00.138Z,-2.30
2019-01-21T03:59:43.922Z,-2.20
2019-01-21T04:02:41.150Z,-2.30
2019-01-21T04:05:40.099Z,-2.40
2019-01-21T04:09:12.414Z,-2.50
2019-01-21T04:12:25.879Z,-2.60
2019-01-21T04:15:26.560Z,-2.70
2019-01-21T04:18:58.824Z,-2.60
2019-01-21T04:22:07.129Z,-2.60
2019-01-21T04:25:04.909Z,-2.60
2019-01-21T04:28:27.494Z,-2.80
2019-01-21T04:31:39.794Z,-2.90
2019-01-21T04:34:47.580Z,-2.80
2019-01-21T04:38:32.585Z,-2.80
2019-01-21T04:41:46.334Z,-2.70
2019-01-21T04:44:57.329Z,-2.90
2019-01-21T04:47:49.844Z,-2.80
2019-01-21T04:50:57.414Z,-2.70
2019-01-21T04:53:55.187Z,-2.70
2019-01-21T04:57:11.833Z,-2.70
2019-01-21T05:00:23.399Z,-2.60
2019-01-21T05:03:37.429Z,-2.60
2019-01-21T05:06:43.540Z,-2.70
2019-01-21T05:10:12.279Z,-2.60
2019-01-21T05:13:34.834Z,-2.60
2019-01-21T05:17:00.901Z,-2.70
2019-01-21T05:19:50.559Z,-2.60
2019-01-21T05:22:43.904Z,-2.40
2019-01-21T05:25:30.994Z,-2.40
2019-01-21T05:28:40.743Z,-2.50
2019-01-21T05:31:46.564Z,-2.60
2019-01-21T05:34:59.533Z,-2.60
2019-01-21T05:37:49.897Z,-2.50
2019-01-21T05:41:01.454Z,-2.50
2019-01-21T05:44:33.659Z,-2.60
2019-01-21T05:47:47.010Z,-2.70
2019-01-21T05:50:51.579Z,-2.70
2019-01-21T05:54:20.850Z,-2.70
2019-01-21T05:57:26.314Z,-2.80
2019-01-21T06:00:30.460Z,-2.80
2019-01-21T06:03:45.650Z,-2.90
2019-01-21T06:06:35.994Z,-2.80
2019-01-21T06:09:42.004Z,-2.80
2019-01-21T06:12:56.244Z,-2.80
2019-01-21T06:16:06.225Z,-2.80
2019-01-21T06:19:34.245Z,-2.80
2019-01-21T06:22:30.810Z,-2.80
2019-01-21T06:25:42.015Z,-2.70
2019-01-21T06:29:00.681Z,-2.70
2019-01-21T06:31:50.784Z,-2.70
2019-01-21T06:34:51.322Z,-2.80
2019-01-21T06:37:47.634Z,-2.70
2019-01-21T06:41:16.954Z,-2.70
2019-01-21T06:44:26.629Z,-2.60
2019-01-21T06:47:42.869Z,-2.50
2019-01-21T06:50:50.369Z,-2.50
2019-01-21T06:54:06.464Z,-2.50
2019-01-21T06:56:53.513Z,-2.50
2019-01-21T06:59:53.963Z,-2.40
2019-01-21T07:03:04.045Z,-2.70
2019-01-21T07:06:09.619Z,-2.80
2019-01-21T07:09:02.924Z,-3.00
2019-01-21T07:12:07.674Z,-3.00
2019-01-21T07:15:11.243Z,-3.10
2019-01-21T07:18:12.389Z,-3.10
2019-01-21T07:21:27.814Z,-3.00
2019-01-21T07:24:32.158Z,-3.00
2019-01-21T07:27:37.689Z,-3.00
2019-01-21T07:30:52.069Z,-2.90
2019-01-21T07:34:02.874Z,-2.90
2019-01-21T07:36:59.265Z,-2.90
2019-01-21T07:40:16.201Z,-2.80
2019-01-21T07:43:23.814Z,-2.80
2019-01-21T07:46:24.023Z,-3.00
2019-01-21T07:49:23.139Z,-3.00
2019-01-21T07:52:37.060Z,-2.90
2019-01-21T07:55:54.224Z,-2.80
2019-01-21T07:58:56.359Z,-2.70
2019-01-21T08:02:09.839Z,-2.50
2019-01-21T08:05:21.936Z,-2.40
2019-01-21T08:08:15.559Z,-2.30
2019-01-21T08:11:08.364Z,-2.50
2019-01-21T08:14:10.094Z,-2.40
2019-01-21T08:17:24.139Z,-2.20
2019-01-21T08:20:32.764Z,-2.10
2019-01-21T08:23:39.362Z,-1.80
2019-01-21T08:26:37.595Z,-1.60
2019-01-21T08:29:49.269Z,-1.50
2019-01-21T08:32:54.939Z,-1.50
2019-01-21T08:35:56.884Z,-1.40
2019-01-21T08:39:09.439Z,-1.20
2019-01-21T08:42:08.139Z,-1.10
2019-01-21T08:45:20.559Z,-1.10
2019-01-21T08:48:58.834Z,-1.20
2019-01-21T08:52:10.005Z,-1.00
2019-01-21T08:54:54.804Z,-1.00
2019-01-21T08:57:59.242Z,-0.90
2019-01-21T09:00:53.989Z,-0.80
2019-01-21T09:04:13.814Z,-0.60
2019-01-21T09:07:17.582Z,-0.40
2019-01-21T09:10:17.169Z,-0.30
2019-01-21T09:13:30.269Z,-0.20
2019-01-21T09:16:40.019Z,-0.20
2019-01-21T09:19:37.214Z,-0.20
2019-01-21T09:22:27.309Z,0.00
2019-01-21T09:25:38.044Z,0.10
2019-01-21T09:28:31.279Z,0.20
2019-01-21T09:31:42.064Z,0.20
2019-01-21T09:34:45.609Z,0.40
2019-01-21T09:37:44.000Z,0.60
2019-01-21T09:41:01.325Z,0.70
2019-01-21T09:44:11.119Z,0.90
2019-01-21T09:46:45.953Z,1.00
2019-01-21T09:49:14.209Z,1.10
2019-01-21T09:52:08.814Z,1.20
2019-01-21T09:54:40.525Z,1.30
2019-01-21T09:57:20.188Z,1.40
2019-01-21T09:59:57.384Z,1.50
2019-01-21T10:02:44.019Z,1.70
2019-01-21T10:05:15.929Z,1.70
2019-01-21T10:08:19.076Z,1.80
2019-01-21T10:11:14.574Z,1.80
2019-01-21T10:14:14.484Z,1.90
2019-01-21T10:17:09.679Z,2.00
2019-01-21T10:20:09.168Z,2.00
2019-01-21T10:23:24.654Z,1.90
2019-01-21T10:26:41.914Z,1.90
2019-01-21T10:29:40.830Z,2.00
2019-01-21T10:32:52.869Z,1.90
2019-01-21T10:36:02.341Z,1.90
2019-01-21T10:39:10.494Z,2.00
2019-01-21T10:42:24.010Z,2.20
2019-01-21T10:45:44.099Z,2.40
2019-01-21T10:48:49.549Z,2.30
2019-01-21T10:52:00.419Z,2.40
2019-01-21T10:55:01.790Z,2.60
2019-01-21T10:57:42.854Z,2.80
2019-01-21T11:00:51.614Z,2.80
2019-01-21T11:03:34.144Z,3.00
2019-01-21T11:06:30.974Z,2.80
2019-01-21T11:09:30.049Z,2.80
2019-01-21T11:12:20.519Z,2.90
2019-01-21T11:15:31.949Z,3.20
2019-01-21T11:18:14.479Z,3.20
2019-01-21T11:21:13.324Z,3.40
2019-01-21T11:24:25.366Z,3.30
2019-01-21T11:27:27.874Z,3.20
2019-01-21T11:30:38.891Z,3.30
2019-01-21T11:33:37.979Z,3.50
2019-01-21T11:36:50.894Z,3.90
2019-01-21T11:39:47.099Z,3.70
2019-01-21T11:42:48.879Z,3.70
2019-01-21T11:45:34.109Z,3.90
2019-01-21T11:48:30.999Z,4.10
2019-01-21T11:51:31.314Z,4.50
2019-01-21T11:54:36.954Z,4.50
2019-01-21T11:58:00.019Z,4.40
2019-01-21T12:00:49.279Z,4.70
2019-01-21T12:03:53.425Z,4.80
2019-01-21T12:06:48.623Z,4.90
2019-01-21T12:09:35.290Z,4.90
2019-01-21T12:12:32.059Z,4.90
2019-01-21T12:15:46.034Z,5.20
2019-01-21T12:19:02.774Z,5.40
2019-01-21T12:22:28.844Z,5.70
2019-01-21T12:25:07.784Z,5.90
2019-01-21T12:28:11.239Z,6.30
2019-01-21T12:31:17.870Z,6.10
2019-01-21T12:34:24.000Z,6.30
2019-01-21T12:37:13.064Z,5.90
2019-01-21T12:40:35.839Z,6.10
2019-01-21T12:43:48.903Z,6.30
2019-01-21T12:46:29.154Z,6.60
2019-01-21T12:49:46.814Z,6.40
2019-01-21T12:52:34.861Z,6.60
2019-01-21T12:55:41.894Z,6.60
2019-01-21T12:58:52.701Z,6.80
2019-01-21T13:01:54.689Z,6.70
2019-01-21T13:05:06.783Z,6.80
2019-01-21T13:08:06.718Z,6.90
2019-01-21T13:11:10.958Z,7.00
2019-01-21T13:14:17.629Z,7.40
2019-01-21T13:17:12.114Z,7.10
2019-01-21T13:20:13.544Z,7.00
2019-01-21T13:23:12.569Z,7.30
2019-01-21T13:26:05.329Z,7.30
2019-01-21T13:28:53.779Z,7.30
2019-01-21T13:31:54.697Z,7.40
2019-01-21T13:34:54.089Z,7.50
2019-01-21T13:38:06.029Z,7.60
2019-01-21T13:41:26.018Z,7.30
2019-01-21T13:44:48.774Z,7.50
2019-01-21T13:47:53.284Z,7.60
2019-01-21T13:51:04.119Z,7.60
2019-01-21T13:54:13.129Z,7.70
2019-01-21T13:57:28.809Z,8.00
2019-01-21T14:00:48.938Z,8.20
2019-01-21T14:03:42.768Z,8.20
2019-01-21T14:07:08.551Z,8.40
2019-01-21T14:10:00.444Z,8.50
2019-01-21T14:12:41.754Z,8.60
2019-01-21T14:16:08.024Z,8.50
2019-01-21T14:19:26.287Z,8.40
2019-01-21T14:22:27.864Z,8.60
2019-01-21T14:25:31.089Z,8.80
2019-01-21T14:28:33.714Z,8.80
2019-01-21T14:31:56.699Z,8.60
2019-01-21T14:34:48.144Z,8.60
2019-01-21T14:37:43.749Z,8.70
2019-01-21T14:40:53.204Z,8.60
2019-01-21T14:43:39.356Z,8.30
2019-01-21T14:46:26.199Z,8.50
2019-01-21T14:49:17.624Z,8.70
2019-01-21T14:52:20.349Z,8.60
2019-01-21T14:55:39.772Z,8.60
2019-01-21T14:58:48.176Z,8.60
2019-01-21T15:01:47.446Z,8.60
2019-01-21T15:04:42.787Z,8.30
2019-01-21T15:07:50.619Z,8.60
2019-01-21T15:11:00.644Z,8.60
2019-01-21T15:13:47.599Z,8.50
2019-01-21T15:17:10.809Z,8.50
2019-01-21T15:20:03.635Z,8.40
2019-01-21T15:23:26.649Z,8.30
2019-01-21T15:26:24.345Z,8.20
2019-01-21T15:29:44.479Z,8.10
2019-01-21T15:33:02.364Z,8.00
2019-01-21T15:35:59.413Z,7.70
2019-01-21T15:39:00.879Z,7.70
2019-01-21T15:42:05.914Z,7.60
2019-01-21T15:45:24.265Z,7.40
2019-01-21T15:48:17.833Z,7.30
2019-01-21T15:51:12.564Z,7.10
2019-01-21T15:54:10.904Z,6.90
2019-01-21T15:57:10.624Z,6.70
2019-01-21T16:00:27.774Z,6.40
2019-01-21T16:03:37.474Z,6.00
2019-01-21T16:06:52.634Z,5.80
2019-01-21T16:10:01.605Z,5.30
2019-01-21T16:12:47.544Z,4.90
2019-01-21T16:15:48.866Z,4.80
2019-01-21T16:18:29.810Z,4.80
2019-01-21T16:21:50.984Z,4.70
2019-01-21T16:25:03.764Z,4.50
2019-01-21T16:28:06.693Z,4.40
2019-01-21T16:30:51.461Z,4.20
2019-01-21T16:34:04.424Z,4.00
2019-01-21T16:37:13.074Z,3.90
2019-01-21T16:40:45.315Z,3.90
2019-01-21T16:43:16.075Z,3.80
2019-01-21T16:45:46.830Z,3.60
2019-01-21T16:48:17.587Z,3.60
2019-01-21T16:50:48.075Z,3.40
2019-01-21T16:53:18.840Z,3.30
2019-01-21T16:55:49.543Z,3.30
2019-01-21T16:58:20.236Z,3.30
2019-01-21T17:00:50.887Z,3.20
2019-01-21T17:03:21.514Z,3.20
2019-01-21T17:05:52.060Z,3.10
2019-01-21T17:08:22.635Z,3.00
2019-01-21T17:10:53.088Z,2.90
2019-01-21T17:13:23.660Z,2.80
2019-01-21T17:15:54.361Z,2.80
2019-01-21T17:18:25.111Z,2.90
2019-01-21T17:20:55.745Z,2.80
2019-01-21T17:23:26.335Z,2.70
2019-01-21T17:25:56.881Z,2.70
2019-01-21T17:28:27.419Z,2.70
2019-01-21T17:30:58.164Z,2.70
2019-01-21T17:33:29.055Z,2.70
2019-01-21T17:35:59.489Z,2.60
2019-01-21T17:38:29.969Z,2.60
2019-01-21T17:41:00.645Z,2.50
2019-01-21T17:43:31.154Z,2.50
2019-01-21T17:46:01.810Z,2.30
2019-01-21T17:48:32.454Z,2.20
2019-01-21T17:51:03.102Z,2.20
2019-01-21T17:53:33.790Z,2.00
2019-01-21T17:56:04.295Z,2.00
2019-01-21T17:58:34.990Z,1.90
2019-01-21T18:01:05.710Z,1.80
2019-01-21T18:03:36.410Z,1.80
2019-01-21T18:06:07.096Z,1.70
2019-01-21T18:08:37.670Z,1.70
2019-01-21T18:11:08.588Z,1.60
2019-01-21T18:13:39.175Z,1.60
2019-01-21T18:16:09.767Z,1.60
2019-01-21T18:18:40.504Z,1.60
2019-01-21T18:21:11.184Z,1.40
2019-01-21T18:23:41.785Z,1.20
2019-01-21T18:26:12.500Z,0.90
2019-01-21T18:28:43.114Z,0.80
2019-01-21T18:31:13.760Z,0.80
2019-01-21T18:33:44.445Z,0.90
2019-01-21T18:36:15.535Z,1.00
2019-01-21T18:38:46.249Z,1.00
2019-01-21T18:41:16.995Z,0.90
2019-01-21T18:43:47.655Z,0.70
2019-01-21T18:46:18.160Z,0.80
2019-01-21T18:48:49.095Z,0.80
2019-01-21T18:51:19.670Z,0.90
2019-01-21T18:53:50.301Z,0.80
2019-01-21T18:56:21.174Z,0.90
2019-01-21T18:58:51.984Z,0.90
2019-01-21T19:01:22.759Z,0.90
2019-01-21T19:03:53.600Z,0.80
2019-01-21T19:06:24.440Z,0.70
2019-01-21T19:08:55.200Z,0.70
2019-01-21T19:11:26.204Z,0.90
2019-01-21T19:13:56.854Z,0.80
2019-01-21T19:16:27.629Z,0.70
2019-01-21T19:18:58.461Z,0.60
2019-01-21T19:21:29.358Z,0.60
2019-01-21T19:24:00.165Z,0.60
2019-01-21T19:26:30.914Z,0.60
2019-01-21T19:29:01.618Z,0.60
2019-01-21T19:31:32.348Z,0.60
2019-01-21T19:34:03.131Z,0.50
2019-01-21T19:36:33.848Z,0.50
2019-01-21T19:39:06.400Z,0.50
2019-01-21T19:41:37.154Z,0.50
2019-01-21T19:44:07.999Z,0.50
2019-01-21T19:46:44.115Z,0.60
2019-01-21T19:49:11.715Z,0.60
2019-01-21T19:51:42.486Z,0.60
2019-01-21T19:54:13.525Z,0.70
2019-01-21T19:56:46.689Z,0.70
2019-01-21T19:59:17.710Z,0.70
2019-01-21T20:01:49.801Z,0.80
2019-01-21T20:04:20.725Z,0.70
2019-01-21T20:06:51.860Z,0.70
2019-01-21T20:09:22.960Z,0.80
2019-01-21T20:11:53.840Z,0.70
2019-01-21T20:14:24.733Z,0.60
2019-01-21T20:16:56.482Z,0.40
2019-01-21T20:19:27.449Z,0.30
2019-01-21T20:21:58.493Z,0.10
2019-01-21T20:24:29.842Z,0.10
2019-01-21T20:27:00.594Z,0.10
2019-01-21T20:29:31.364Z,0.10
2019-01-21T20:32:02.395Z,0.10
2019-01-21T20:34:33.599Z,0.00
2019-01-21T20:37:04.394Z,0.10
2019-01-21T20:39:35.421Z,-0.10
2019-01-21T20:42:06.615Z,-0.20
2019-01-21T20:44:37.449Z,-0.30
2019-01-21T20:47:08.546Z,-0.30
2019-01-21T20:49:40.065Z,-0.30
2019-01-21T20:52:14.187Z,-0.30
2019-01-21T20:54:45.680Z,-0.20
2019-01-21T20:57:16.640Z,0.00
2019-01-21T20:59:50.409Z,0.10
2019-01-21T21:02:21.060Z,0.10
2019-01-21T21:05:02.686Z,0.10
2019-01-21T21:07:41.805Z,0.10
2019-01-21T21:10:14.334Z,0.00
2019-01-21T21:12:48.705Z,0.00
2019-01-21T21:15:22.355Z,0.10
2019-01-21T21:17:58.961Z,0.00
2019-01-21T21:20:35.639Z,-0.10
2019-01-21T21:23:15.044Z,-0.20
2019-01-21T21:25:57.207Z,-0.20
2019-01-21T21:28:31.146Z,-0.30
2019-01-21T21:31:02.924Z,-0.20
2019-01-21T21:33:35.075Z,-0.20
2019-01-21T21:36:10.339Z,-0.30
2019-01-21T21:38:45.569Z,-0.30
2019-01-21T21:41:23.984Z,-0.30
2019-01-21T21:43:55.864Z,-0.20
2019-01-21T21:46:35.260Z,-0.20
2019-01-21T21:49:08.695Z,-0.20
2019-01-21T21:51:40.704Z,-0.20
2019-01-21T21:54:14.084Z,-0.20
2019-01-21T21:56:50.719Z,-0.30
2019-01-21T21:59:23.240Z,-0.20
2019-01-21T22:01:53.914Z,-0.30
2019-01-21T22:04:30.480Z,-0.30
2019-01-21T22:07:03.974Z,-0.30
2019-01-21T22:09:34.609Z,-0.40
2019-01-21T22:12:06.995Z,-0.50
2019-01-21T22:14:40.764Z,-0.50
2019-01-21T22:17:15.180Z,-0.60
2019-01-21T22:19:47.421Z,-0.60
2019-01-21T22:22:34.945Z,-0.60
2019-01-21T22:25:11.128Z,-0.70
2019-01-21T22:27:41.880Z,-0.80
2019-01-21T22:30:15.734Z,-0.80
2019-01-21T22:32:46.265Z,-0.90
2019-01-21T22:35:16.999Z,-0.90
2019-01-21T22:37:48.314Z,-0.90
2019-01-21T22:40:20.730Z,-0.90
2019-01-21T22:42:51.369Z,-0.90
2019-01-21T22:45:22.699Z,-0.90
2019-01-21T22:47:53.274Z,-0.90
2019-01-21T22:50:24.019Z,-1.20
2019-01-21T22:52:54.659Z,-1.50
2019-01-21T22:55:25.284Z,-1.30
2019-01-21T22:57:56.025Z,-1.20
2019-01-21T23:01:09.569Z,-1.30
2019-01-21T23:03:40.224Z,-1.30
2019-01-21T23:06:11.014Z,-1.20
2019-01-21T23:08:42.034Z,-1.20
2019-01-21T23:11:12.639Z,-1.40
2019-01-21T23:13:43.205Z,-1.30
2019-01-21T23:16:13.900Z,-1.30
2019-01-21T23:18:44.559Z,-1.30
2019-01-21T23:21:15.159Z,-1.20
2019-01-21T23:23:45.819Z,-1.30
2019-01-21T23:26:16.454Z,-1.40
2019-01-21T23:28:49.539Z,-1.50
2019-01-21T23:31:20.189Z,-1.40
2019-01-21T23:33:51.219Z,-1.50
2019-01-21T23:36:21.800Z,-1.60
2019-01-21T23:38:52.509Z,-1.50
2019-01-21T23:41:23.134Z,-1.50
2019-01-21T23:43:53.704Z,-1.50
2019-01-21T23:46:24.300Z,-1.50
2019-01-21T23:48:54.797Z,-1.40
2019-01-21T23:51:25.464Z,-1.40
2019-01-21T23:53:56.173Z,-1.30
2019-01-21T23:56:26.818Z,-1.30
2019-01-21T23:58:57.509Z,-1.20
